• Join FlightAware (Why Join?)
  • Login
  • US Flag 
12:35PM EDT


 

Airport Tracker/Info


-or-


 

Live Flight TrackerFlight Track Log ✈ CLH304 ✈ 20-Jun-2013 ✈ EDDF / FRA - LIMF / TRN

Flight Track Log - Related Links

Times and Time Zones

All times are in EDT time to prevent confusion due to time zone crossing. See the CLH304 flight status page for this flight to view local times or setup timezone preferences in your user account.

Time Position Orientation Groundspeed Altitude Reporting Facility
EDT Latitude Longitude Course Direction KTS MPH feet Rate Location/Type
04:01PM 49.4706 8.4313 187° South  Level Estimated
04:02PM 49.3779 8.4129 187° South  Level Estimated
04:03PM 49.2853 8.3946 187° South  Level Estimated
04:04PM 49.1926 8.3764 187° South  Level Estimated
04:05PM 49.1000 8.3582 187° South  Level Estimated
04:06PM 49.0073 8.3401 187° South  Level Estimated
04:07PM 48.9146 8.3220 187° South  Level Estimated
04:08PM 48.8220 8.3041 187° South  Level Estimated
04:09PM 48.7293 8.2861 187° South  Level Estimated
04:10PM 48.6366 8.2683 187° South  Level Estimated
04:11PM 48.5439 8.2505 187° South  Level Estimated
04:12PM 48.4513 8.2328 187° South  Level Estimated
04:13PM 48.3586 8.2152 187° South  Level Estimated
04:14PM 48.2659 8.1976 187° South  Level Estimated
04:15PM 48.1732 8.1800 187° South  Level Estimated
04:16PM 48.0805 8.1626 187° South  Level Estimated
04:17PM 47.9878 8.1452 187° South  Level Estimated
04:18PM 47.8951 8.1279 187° South  Level Estimated
04:19PM 47.8024 8.1106 187° South  Level Estimated
04:20PM 47.7098 8.0934 187° South  Level Estimated
04:21PM 47.6171 8.0762 187° South  Level Estimated
04:22PM 47.5243 8.0591 187° South  Level Estimated
04:23PM 47.4316 8.0421 187° South  Level Estimated
04:24PM 47.3389 8.0251 187° South  Level Estimated
04:25PM 47.2462 8.0082 187° South  Level Estimated
04:26PM 47.1535 7.9914 187° South  Level Estimated
04:27PM 47.0608 7.9746 187° South  Level Estimated
04:28PM 46.9681 7.9579 187° South  Level Estimated
04:29PM 46.8754 7.9412 187° South  Level Estimated
04:30PM 46.7826 7.9246 187° South  Level Estimated
04:31PM 46.6899 7.9080 187° South  Level Estimated
04:32PM 46.5972 7.8915 187° South  Level Estimated
04:33PM 46.5302 7.8796 187° South  Level Estimated
04:34PM 46.4632 7.8678 187° South  Level Estimated
04:35PM 46.3963 7.8559 187° South  Level Estimated
04:36PM 46.3293 7.8441 187° South  Level Estimated
04:37PM 46.2623 7.8324 187° South  Level Estimated
04:38PM 46.1953 7.8206 187° South  Level Estimated
04:39PM 46.1283 7.8089 187° South  Level Estimated
04:40PM 46.0614 7.7972 187° South  Level Estimated
04:41PM 45.9944 7.7856 187° South  Level Estimated
04:42PM 45.9274 7.7740 187° South  Level Estimated
04:43PM 45.8604 7.7624 187° South  Level Estimated
04:44PM 45.7934 7.7508 187° South  Level Estimated
04:45PM 45.7264 7.7392 187° South  Level Estimated
04:46PM 45.6594 7.7277 187° South  Level Estimated
04:47PM 45.5924 7.7162 187° South  Level Estimated
04:48PM 45.5255 7.7048 187° South  Level Estimated
04:49PM 45.4585 7.6933 187° South  Level Estimated
04:50PM 45.3915 7.6820 187° South  Level Estimated
04:51PM 45.3245 7.6706 187° South  Level Estimated
04:52PM 45.2575 7.6592 187° South  Level Estimated
04:53PM 45.2008 7.6496 187° South  Level Estimated
04:54PM 45.2008 7.6496 35° Northeast  Level Estimated
04:55PM 45.2008 7.6496 35° Northeast  Level Estimated
04:56PM 45.2008 7.6496 35° Northeast  Level Estimated
04:57PM 45.2008 7.6496 35° Northeast  Level Estimated
04:58PM 45.2008 7.6496 35° Northeast  Level Estimated
04:59PM 45.2008 7.6496 35° Northeast  Level Estimated
05:00PM 45.2008 7.6496 35° Northeast  Level Estimated
05:01PM 45.2008 7.6496 35° Northeast  Level Estimated
05:02PM 45.2008 7.6496 35° Northeast  Level Estimated
05:03PM 45.2008 7.6496 35° Northeast  Level Estimated
05:04PM 45.2008 7.6496 35° Northeast  Level Estimated
05:05PM 45.2008 7.6496 35° Northeast  Level Estimated
05:06PM 45.2008 7.6496 35° Northeast  Level Estimated
05:07PM 45.2008 7.6496 35° Northeast  Level Estimated
05:08PM 45.2008 7.6496 35° Northeast  Level Estimated
05:09PM 45.2008 7.6496 35° Northeast  Level Estimated
05:10PM 45.2008 7.6496 35° Northeast  Level Estimated
05:11PM 45.2008 7.6496 35° Northeast  Level Estimated
05:12PM 45.2008 7.6496 35° Northeast  Level Estimated
05:13PM 45.2008 7.6496 35° Northeast  Level Estimated
05:14PM 45.2008 7.6496 35° Northeast  Level Estimated
05:15PM 45.2008 7.6496 35° Northeast  Level Estimated
05:16PM 45.2008 7.6496 35° Northeast  Level Estimated
05:17PM 45.2008 7.6496 35° Northeast  Level Estimated
05:18PM 45.2008 7.6496 35° Northeast  Level Estimated
05:19PM 45.2008 7.6496 35° Northeast  Level Estimated
05:20PM 45.2008 7.6496 35° Northeast  Level Estimated
05:21PM 45.2008 7.6496 35° Northeast  Level Estimated
05:22PM 45.2008 7.6496 35° Northeast  Level Estimated
05:23PM 45.2008 7.6496 35° Northeast  Level Estimated